createdAt,value
2019-03-05T00:00:47.108Z,48.55
2019-03-05T00:05:57.522Z,48.67
2019-03-05T00:11:04.537Z,48.27
2019-03-05T00:16:15.219Z,48.37
2019-03-05T00:21:23.245Z,48.70
2019-03-05T00:26:39.477Z,48.57
2019-03-05T00:31:56.313Z,48.32
2019-03-05T00:37:13.865Z,48.23
2019-03-05T00:42:56.074Z,47.32
2019-03-05T00:48:31.803Z,48.97
2019-03-05T00:53:57.819Z,47.71
2019-03-05T00:59:13.607Z,48.55
2019-03-05T01:04:25.331Z,48.08
2019-03-05T01:09:31.900Z,47.73
2019-03-05T01:14:39.624Z,47.58
2019-03-05T01:19:46.323Z,47.47
2019-03-05T01:24:52.847Z,47.53
2019-03-05T01:30:06.222Z,47.44
2019-03-05T01:35:15.105Z,47.13
2019-03-05T01:40:26.170Z,47.86
2019-03-05T01:45:36.079Z,48.40
2019-03-05T01:50:42.530Z,47.65
2019-03-05T01:55:48.928Z,48.17
2019-03-05T02:00:57.269Z,48.23
2019-03-05T02:06:09.998Z,48.13
2019-03-05T02:11:17.583Z,48.81
2019-03-05T02:16:25.276Z,48.72
2019-03-05T02:21:33.922Z,48.54
2019-03-05T02:26:56.618Z,49.00
2019-03-05T02:32:13.022Z,48.51
2019-03-05T02:37:38.504Z,48.00
2019-03-05T02:43:00.486Z,48.78
2019-03-05T02:48:32.554Z,49.48
2019-03-05T02:53:45.594Z,49.50
2019-03-05T02:58:53.216Z,50.18
2019-03-05T03:04:14.438Z,49.74
2019-03-05T03:09:46.317Z,49.97
2019-03-05T03:14:53.808Z,50.54
2019-03-05T03:20:01.752Z,50.90
2019-03-05T03:25:21.424Z,50.87
2019-03-05T03:30:28.453Z,51.17
2019-03-05T03:35:39.748Z,51.57
2019-03-05T03:40:45.795Z,51.49
2019-03-05T03:45:56.391Z,50.84
2019-03-05T03:51:04.520Z,50.37
2019-03-05T03:56:15.088Z,51.12
2019-03-05T04:01:23.445Z,51.16
2019-03-05T04:06:29.272Z,50.70
2019-03-05T04:11:35.587Z,52.06
2019-03-05T04:16:41.435Z,51.69
2019-03-05T04:21:48.385Z,51.19
2019-03-05T04:26:54.474Z,52.66
2019-03-05T04:32:00.681Z,52.82
2019-03-05T04:37:06.426Z,53.67
2019-03-05T04:42:12.692Z,53.92
2019-03-05T04:47:19.077Z,55.32
2019-03-05T04:52:25.830Z,53.70
2019-03-05T04:57:31.415Z,54.95
2019-03-05T05:02:37.771Z,56.41
2019-03-05T05:07:45.615Z,56.33
2019-03-05T05:12:51.679Z,56.91
2019-03-05T05:17:59.223Z,56.92
2019-03-05T05:23:06.606Z,56.70
2019-03-05T05:28:18.269Z,55.69
2019-03-05T05:33:25.905Z,56.49
2019-03-05T05:38:35.852Z,56.81
2019-03-05T05:43:42.805Z,57.82
2019-03-05T05:48:48.679Z,57.11
2019-03-05T05:53:54.625Z,56.99
2019-03-05T05:59:00.595Z,56.75
2019-03-05T06:04:06.229Z,56.07
2019-03-05T06:09:12.194Z,55.45
2019-03-05T06:14:18.072Z,55.93
2019-03-05T06:19:24.147Z,55.12
2019-03-05T06:24:29.938Z,56.27
2019-03-05T06:29:35.607Z,55.41
2019-03-05T06:34:41.944Z,55.16
2019-03-05T06:39:48.073Z,54.53
2019-03-05T06:44:54.194Z,54.74
2019-03-05T06:50:00.093Z,54.12
2019-03-05T06:55:08.864Z,54.12
2019-03-05T07:00:24.909Z,54.28
2019-03-05T07:06:06.867Z,54.41
2019-03-05T07:11:36.264Z,54.51
2019-03-05T07:16:54.274Z,54.66
2019-03-05T07:22:08.430Z,53.31
2019-03-05T07:27:16.416Z,53.23
2019-03-05T07:32:22.426Z,52.26
2019-03-05T07:37:28.368Z,51.73
2019-03-05T07:42:35.170Z,52.43
2019-03-05T07:47:41.076Z,51.50
2019-03-05T07:52:46.742Z,49.43
2019-03-05T07:57:52.560Z,50.91
2019-03-05T08:02:58.319Z,51.01
2019-03-05T08:08:40.741Z,49.41
2019-03-05T08:14:04.258Z,49.89
2019-03-05T08:19:10.598Z,49.77
2019-03-05T08:24:16.719Z,50.47
2019-03-05T08:29:23.553Z,49.04
2019-03-05T08:34:31.186Z,49.11
2019-03-05T08:39:38.971Z,49.95
2019-03-05T08:44:50.279Z,50.08
2019-03-05T08:49:53.605Z,49.75
2019-03-05T08:54:59.501Z,49.84
2019-03-05T09:00:14.472Z,49.92
2019-03-05T09:05:20.925Z,48.92
2019-03-05T09:10:28.247Z,49.23
2019-03-05T09:15:35.921Z,48.48
2019-03-05T09:20:42.301Z,48.39
2019-03-05T09:25:48.683Z,48.99
2019-03-05T09:30:55.869Z,48.83
2019-03-05T09:36:02.149Z,49.72
2019-03-05T09:41:08.183Z,48.93
2019-03-05T09:46:14.409Z,49.04
2019-03-05T09:51:21.152Z,49.62
2019-03-05T09:56:28.913Z,51.71
2019-03-05T10:01:35.449Z,52.44
2019-03-05T10:06:41.240Z,52.66
2019-03-05T10:11:47.801Z,52.38
2019-03-05T10:16:53.375Z,51.10
2019-03-05T10:21:59.096Z,50.12
2019-03-05T10:27:05.396Z,48.74
2019-03-05T10:32:12.585Z,47.58
2019-03-05T10:37:19.163Z,47.50
2019-03-05T10:42:24.875Z,45.55
2019-03-05T10:47:30.695Z,45.16
2019-03-05T10:52:36.876Z,45.13
2019-03-05T10:57:44.375Z,44.08
2019-03-05T11:02:51.767Z,43.99
2019-03-05T11:07:58.473Z,43.69
2019-03-05T11:13:04.770Z,43.89
2019-03-05T11:18:12.909Z,43.11
2019-03-05T11:23:18.683Z,42.95
2019-03-05T11:28:25.263Z,42.85
2019-03-05T11:33:31.983Z,42.89
2019-03-05T11:38:38.583Z,42.90
2019-03-05T11:43:44.722Z,42.72
2019-03-05T11:48:50.627Z,43.33
2019-03-05T11:53:56.337Z,43.05
2019-03-05T11:59:02.207Z,42.05
2019-03-05T12:04:08.175Z,45.85
2019-03-05T12:09:14.163Z,47.21
2019-03-05T12:14:20.616Z,46.26
2019-03-05T12:19:26.790Z,44.81
2019-03-05T12:24:33.224Z,42.24
2019-03-05T12:29:40.105Z,43.00
2019-03-05T12:34:45.903Z,42.64
2019-03-05T12:39:51.747Z,41.56
2019-03-05T12:44:58.881Z,42.20
2019-03-05T12:50:08.091Z,41.24
2019-03-05T12:55:17.768Z,40.74
2019-03-05T13:00:32.377Z,42.70
2019-03-05T13:05:38.156Z,46.56
2019-03-05T13:10:45.180Z,55.85
2019-03-05T13:15:56.507Z,55.78
2019-03-05T13:21:03.636Z,55.01
2019-03-05T13:26:10.075Z,53.59
2019-03-05T13:31:15.951Z,54.44
2019-03-05T13:36:22.027Z,48.26
2019-03-05T13:41:27.580Z,48.27
2019-03-05T13:46:35.024Z,47.22
2019-03-05T13:51:59.710Z,45.08
2019-03-05T13:57:24.656Z,47.26
2019-03-05T14:02:31.140Z,47.13
2019-03-05T14:08:07.063Z,46.81
2019-03-05T14:13:12.895Z,46.03
2019-03-05T14:18:19.381Z,46.81
2019-03-05T14:23:25.478Z,45.76
2019-03-05T14:28:32.163Z,45.79
2019-03-05T14:33:38.178Z,44.71
2019-03-05T14:38:44.530Z,43.77
2019-03-05T14:43:50.558Z,44.30
2019-03-05T14:48:57.730Z,41.29
2019-03-05T14:54:04.196Z,43.33
2019-03-05T14:59:10.553Z,40.56
2019-03-05T15:04:17.076Z,40.67
2019-03-05T15:09:23.866Z,41.24
2019-03-05T15:14:29.743Z,42.93
2019-03-05T15:19:36.803Z,43.25
2019-03-05T15:24:43.166Z,44.67
2019-03-05T15:29:49.387Z,45.74
2019-03-05T15:34:55.837Z,46.05
2019-03-05T15:40:02.219Z,47.36
2019-03-05T15:45:13.901Z,47.89
2019-03-05T15:50:28.429Z,50.52
2019-03-05T15:55:34.846Z,52.05
2019-03-05T16:00:42.072Z,50.89
2019-03-05T16:05:53.927Z,51.82
2019-03-05T16:11:00.674Z,52.50
2019-03-05T16:16:06.894Z,54.12
2019-03-05T16:21:13.992Z,54.58
2019-03-05T16:26:23.713Z,59.35
2019-03-05T16:31:31.664Z,67.55
2019-03-05T16:36:42.118Z,67.21
2019-03-05T16:41:53.309Z,65.76
2019-03-05T16:47:17.659Z,65.57
2019-03-05T16:52:32.791Z,64.60
2019-03-05T16:57:55.366Z,65.02
2019-03-05T17:03:09.181Z,63.55
2019-03-05T17:08:34.019Z,63.90
2019-03-05T17:13:40.104Z,63.01
2019-03-05T17:18:46.728Z,63.15
2019-03-05T17:23:55.121Z,63.49
2019-03-05T17:29:01.535Z,62.55
2019-03-05T17:34:10.659Z,62.63
2019-03-05T17:39:21.579Z,62.35
2019-03-05T17:44:27.109Z,62.23
2019-03-05T17:49:33.417Z,61.89
2019-03-05T17:54:41.026Z,62.29
2019-03-05T17:59:46.837Z,62.47
2019-03-05T18:04:52.544Z,61.88
2019-03-05T18:09:58.455Z,61.46
2019-03-05T18:15:07.697Z,62.62
2019-03-05T18:20:22.454Z,62.77
2019-03-05T18:25:30.223Z,62.13
2019-03-05T18:30:37.151Z,62.85
2019-03-05T18:35:46.098Z,63.01
2019-03-05T18:40:53.229Z,62.33
2019-03-05T18:46:00.971Z,63.24
2019-03-05T18:51:07.287Z,62.16
2019-03-05T18:56:16.571Z,61.75
2019-03-05T19:01:23.015Z,61.54
2019-03-05T19:06:28.737Z,62.27
2019-03-05T19:11:36.553Z,61.70
2019-03-05T19:16:42.876Z,62.19
2019-03-05T19:21:48.631Z,62.46
2019-03-05T19:26:54.623Z,63.28
2019-03-05T19:32:03.994Z,64.45
2019-03-05T19:37:10.563Z,63.57
2019-03-05T19:42:16.114Z,63.41
2019-03-05T19:47:22.102Z,62.73
2019-03-05T19:52:27.903Z,63.12
2019-03-05T19:57:34.125Z,62.20
2019-03-05T20:02:40.238Z,62.31
2019-03-05T20:07:49.939Z,62.70
2019-03-05T20:12:56.044Z,62.52
2019-03-05T20:18:01.910Z,63.35
2019-03-05T20:23:08.162Z,62.71
2019-03-05T20:28:14.571Z,61.95
2019-03-05T20:33:20.564Z,61.81
2019-03-05T20:38:26.259Z,61.05
2019-03-05T20:43:33.072Z,61.32
2019-03-05T20:48:40.562Z,61.65
2019-03-05T20:53:46.769Z,61.79
2019-03-05T20:58:52.309Z,61.76
2019-03-05T21:03:58.809Z,61.56
2019-03-05T21:09:08.895Z,61.79
2019-03-05T21:14:16.553Z,60.64
2019-03-05T21:19:22.343Z,60.40
2019-03-05T21:24:27.937Z,60.67
2019-03-05T21:29:33.948Z,60.08
2019-03-05T21:34:40.320Z,60.22
2019-03-05T21:39:46.261Z,60.00
2019-03-05T21:44:52.066Z,59.26
2019-03-05T21:49:58.737Z,59.53
2019-03-05T21:55:06.784Z,59.66
2019-03-05T22:00:15.543Z,59.67
2019-03-05T22:05:22.825Z,60.14
2019-03-05T22:10:31.757Z,60.52
2019-03-05T22:15:37.927Z,60.12
2019-03-05T22:20:43.795Z,60.22
2019-03-05T22:25:49.425Z,60.49
2019-03-05T22:30:55.580Z,60.23
2019-03-05T22:36:02.841Z,59.94
2019-03-05T22:41:08.662Z,59.47
2019-03-05T22:46:15.005Z,60.18
2019-03-05T22:51:20.866Z,59.25
2019-03-05T22:56:26.646Z,59.43
2019-03-05T23:01:35.819Z,59.54
2019-03-05T23:06:42.554Z,59.27
2019-03-05T23:11:48.828Z,59.50
2019-03-05T23:16:55.201Z,58.83
2019-03-05T23:22:01.364Z,57.78
2019-03-05T23:27:28.626Z,57.61
2019-03-05T23:32:34.402Z,57.87
2019-03-05T23:37:42.199Z,58.32
2019-03-05T23:42:47.972Z,57.90
2019-03-05T23:47:53.916Z,57.35
2019-03-05T23:53:00.266Z,57.90
2019-03-05T23:58:08.802Z,57.75
